sensor_id;sensor_type;location;lat;lon;timestamp;pressure;altitude;pressure_sealevel;temperature;humidity
11349;BME280;5729;43.570;27.826;2022-08-03T00:01:50;98956.47;;;22.24;100.00
11349;BME280;5729;43.570;27.826;2022-08-03T00:04:15;98974.50;;;22.38;100.00
11349;BME280;5729;43.570;27.826;2022-08-03T00:06:41;98978.44;;;22.37;100.00
11349;BME280;5729;43.570;27.826;2022-08-03T00:09:07;98929.88;;;22.08;100.00
11349;BME280;5729;43.570;27.826;2022-08-03T00:11:32;98955.13;;;22.16;100.00
11349;BME280;5729;43.570;27.826;2022-08-03T00:13:58;98968.97;;;22.13;100.00
11349;BME280;5729;43.570;27.826;2022-08-03T00:16:24;98987.22;;;22.19;100.00
11349;BME280;5729;43.570;27.826;2022-08-03T00:18:50;98982.59;;;22.16;100.00
11349;BME280;5729;43.570;27.826;2022-08-03T00:21:16;98932.06;;;21.72;100.00
11349;BME280;5729;43.570;27.826;2022-08-03T00:23:41;98987.72;;;22.14;100.00
11349;BME280;5729;43.570;27.826;2022-08-03T00:26:07;98987.28;;;22.03;100.00
11349;BME280;5729;43.570;27.826;2022-08-03T00:28:32;98908.28;;;21.40;100.00
11349;BME280;5729;43.570;27.826;2022-08-03T00:30:58;98953.16;;;21.75;100.00
11349;BME280;5729;43.570;27.826;2022-08-03T00:33:23;98915.88;;;21.49;100.00
11349;BME280;5729;43.570;27.826;2022-08-03T00:35:50;98944.53;;;21.60;100.00
11349;BME280;5729;43.570;27.826;2022-08-03T00:38:16;98972.84;;;21.86;100.00
11349;BME280;5729;43.570;27.826;2022-08-03T00:40:41;98937.00;;;21.64;100.00
11349;BME280;5729;43.570;27.826;2022-08-03T00:43:07;98931.38;;;21.55;100.00
11349;BME280;5729;43.570;27.826;2022-08-03T00:45:40;98938.84;;;21.55;100.00
11349;BME280;5729;43.570;27.826;2022-08-03T00:48:07;98960.47;;;21.65;100.00
11349;BME280;5729;43.570;27.826;2022-08-03T00:50:36;98948.47;;;21.59;100.00
11349;BME280;5729;43.570;27.826;2022-08-03T00:53:05;98931.75;;;21.41;100.00
11349;BME280;5729;43.570;27.826;2022-08-03T00:55:32;98928.31;;;21.37;100.00
11349;BME280;5729;43.570;27.826;2022-08-03T00:57:57;98933.81;;;21.37;100.00
11349;BME280;5729;43.570;27.826;2022-08-03T01:00:25;98965.38;;;21.58;100.00
11349;BME280;5729;43.570;27.826;2022-08-03T01:02:52;98977.78;;;21.62;100.00
11349;BME280;5729;43.570;27.826;2022-08-03T01:05:18;98948.97;;;21.42;100.00
11349;BME280;5729;43.570;27.826;2022-08-03T01:08:10;98966.78;;;21.50;100.00
11349;BME280;5729;43.570;27.826;2022-08-03T01:13:34;98945.91;;;21.23;100.00
11349;BME280;5729;43.570;27.826;2022-08-03T01:16:08;98956.94;;;21.36;100.00
11349;BME280;5729;43.570;27.826;2022-08-03T01:21:09;98978.38;;;21.41;100.00
11349;BME280;5729;43.570;27.826;2022-08-03T01:23:48;98961.16;;;21.24;100.00
11349;BME280;5729;43.570;27.826;2022-08-03T01:26:33;98977.53;;;21.28;100.00
11349;BME280;5729;43.570;27.826;2022-08-03T01:32:10;98959.97;;;21.09;100.00
11349;BME280;5729;43.570;27.826;2022-08-03T01:34:44;98974.63;;;21.19;100.00
11349;BME280;5729;43.570;27.826;2022-08-03T01:37:14;98977.06;;;21.13;100.00
11349;BME280;5729;43.570;27.826;2022-08-03T01:39:41;98963.13;;;21.08;100.00
11349;BME280;5729;43.570;27.826;2022-08-03T01:42:09;98948.31;;;20.89;100.00
11349;BME280;5729;43.570;27.826;2022-08-03T01:44:37;98965.03;;;20.94;100.00
11349;BME280;5729;43.570;27.826;2022-08-03T01:47:05;98969.13;;;21.02;100.00
11349;BME280;5729;43.570;27.826;2022-08-03T01:49:36;98945.75;;;20.82;100.00
11349;BME280;5729;43.570;27.826;2022-08-03T01:52:04;98961.16;;;20.92;100.00
11349;BME280;5729;43.570;27.826;2022-08-03T01:54:40;98963.97;;;20.72;100.00
11349;BME280;5729;43.570;27.826;2022-08-03T01:57:08;98965.00;;;20.78;100.00
11349;BME280;5729;43.570;27.826;2022-08-03T01:59:35;98941.56;;;20.61;100.00
11349;BME280;5729;43.570;27.826;2022-08-03T02:02:03;98981.63;;;20.87;100.00
11349;BME280;5729;43.570;27.826;2022-08-03T02:04:29;98977.09;;;20.81;100.00
11349;BME280;5729;43.570;27.826;2022-08-03T02:06:56;98956.03;;;20.61;100.00
11349;BME280;5729;43.570;27.826;2022-08-03T02:09:22;98970.97;;;20.57;100.00
11349;BME280;5729;43.570;27.826;2022-08-03T02:11:50;98952.47;;;20.45;100.00
11349;BME280;5729;43.570;27.826;2022-08-03T02:14:18;98981.69;;;20.51;100.00
11349;BME280;5729;43.570;27.826;2022-08-03T02:16:44;98970.44;;;20.46;100.00
11349;BME280;5729;43.570;27.826;2022-08-03T02:19:11;98950.06;;;20.30;100.00
11349;BME280;5729;43.570;27.826;2022-08-03T02:21:37;98969.50;;;20.36;100.00
11349;BME280;5729;43.570;27.826;2022-08-03T02:24:04;98923.91;;;20.10;100.00
11349;BME280;5729;43.570;27.826;2022-08-03T02:26:30;98990.25;;;20.53;100.00
11349;BME280;5729;43.570;27.826;2022-08-03T02:29:10;98959.59;;;20.42;100.00
11349;BME280;5729;43.570;27.826;2022-08-03T02:31:37;98916.47;;;20.10;100.00
11349;BME280;5729;43.570;27.826;2022-08-03T02:34:10;98976.56;;;20.53;100.00
11349;BME280;5729;43.570;27.826;2022-08-03T02:36:37;98983.13;;;20.56;100.00
11349;BME280;5729;43.570;27.826;2022-08-03T02:39:04;98987.41;;;20.57;100.00
11349;BME280;5729;43.570;27.826;2022-08-03T02:41:41;98975.25;;;20.42;100.00
11349;BME280;5729;43.570;27.826;2022-08-03T02:44:08;98994.59;;;20.51;100.00
11349;BME280;5729;43.570;27.826;2022-08-03T02:46:38;98985.97;;;20.52;100.00
11349;BME280;5729;43.570;27.826;2022-08-03T02:49:05;98961.63;;;20.38;100.00
11349;BME280;5729;43.570;27.826;2022-08-03T02:51:32;98983.28;;;20.49;100.00
11349;BME280;5729;43.570;27.826;2022-08-03T02:54:03;98976.09;;;20.39;100.00
11349;BME280;5729;43.570;27.826;2022-08-03T02:56:29;98986.88;;;20.46;100.00
11349;BME280;5729;43.570;27.826;2022-08-03T02:58:57;98989.53;;;20.49;100.00
11349;BME280;5729;43.570;27.826;2022-08-03T03:01:24;98948.75;;;20.19;100.00
11349;BME280;5729;43.570;27.826;2022-08-03T03:03:52;98944.09;;;20.16;100.00
11349;BME280;5729;43.570;27.826;2022-08-03T03:06:20;98996.56;;;20.50;100.00
11349;BME280;5729;43.570;27.826;2022-08-03T03:08:46;98979.66;;;20.36;100.00
11349;BME280;5729;43.570;27.826;2022-08-03T03:11:13;98985.13;;;20.36;100.00
11349;BME280;5729;43.570;27.826;2022-08-03T03:13:41;98997.41;;;20.47;100.00
11349;BME280;5729;43.570;27.826;2022-08-03T03:16:08;98964.81;;;20.33;100.00
11349;BME280;5729;43.570;27.826;2022-08-03T03:18:35;99004.00;;;20.50;100.00
11349;BME280;5729;43.570;27.826;2022-08-03T03:21:03;98967.72;;;20.26;100.00
11349;BME280;5729;43.570;27.826;2022-08-03T03:23:29;98967.03;;;20.22;100.00
11349;BME280;5729;43.570;27.826;2022-08-03T03:25:55;99004.50;;;20.45;100.00
11349;BME280;5729;43.570;27.826;2022-08-03T03:28:23;99002.28;;;20.40;100.00
11349;BME280;5729;43.570;27.826;2022-08-03T03:30:49;99008.41;;;20.44;100.00
11349;BME280;5729;43.570;27.826;2022-08-03T03:33:15;99012.03;;;20.41;100.00
11349;BME280;5729;43.570;27.826;2022-08-03T03:35:41;99025.81;;;20.34;100.00
11349;BME280;5729;43.570;27.826;2022-08-03T03:38:08;99004.78;;;20.30;100.00
11349;BME280;5729;43.570;27.826;2022-08-03T03:40:35;99025.56;;;20.48;100.00
11349;BME280;5729;43.570;27.826;2022-08-03T03:43:01;99027.09;;;20.49;100.00
11349;BME280;5729;43.570;27.826;2022-08-03T03:45:29;99024.53;;;20.58;100.00
11349;BME280;5729;43.570;27.826;2022-08-03T03:47:55;99027.22;;;20.61;100.00
11349;BME280;5729;43.570;27.826;2022-08-03T03:50:21;99020.25;;;20.41;100.00
11349;BME280;5729;43.570;27.826;2022-08-03T03:52:48;99014.53;;;20.51;100.00
11349;BME280;5729;43.570;27.826;2022-08-03T03:55:17;99027.22;;;20.61;100.00
11349;BME280;5729;43.570;27.826;2022-08-03T03:57:43;99022.00;;;20.67;100.00
11349;BME280;5729;43.570;27.826;2022-08-03T04:00:10;98994.06;;;20.40;100.00
11349;BME280;5729;43.570;27.826;2022-08-03T04:02:35;99007.50;;;20.50;100.00
11349;BME280;5729;43.570;27.826;2022-08-03T04:05:01;99027.56;;;20.63;100.00
11349;BME280;5729;43.570;27.826;2022-08-03T04:08:02;99009.19;;;20.44;100.00
11349;BME280;5729;43.570;27.826;2022-08-03T04:14:11;99032.41;;;20.56;100.00
11349;BME280;5729;43.570;27.826;2022-08-03T04:16:32;99037.81;;;20.59;100.00
11349;BME280;5729;43.570;27.826;2022-08-03T04:19:11;98998.34;;;20.41;100.00
11349;BME280;5729;43.570;27.826;2022-08-03T04:21:41;99032.16;;;20.66;100.00
11349;BME280;5729;43.570;27.826;2022-08-03T04:24:08;99013.66;;;20.54;100.00
11349;BME280;5729;43.570;27.826;2022-08-03T04:26:37;99006.75;;;20.50;100.00
11349;BME280;5729;43.570;27.826;2022-08-03T04:29:05;99022.41;;;20.65;100.00
11349;BME280;5729;43.570;27.826;2022-08-03T04:31:31;99010.84;;;20.58;100.00
11349;BME280;5729;43.570;27.826;2022-08-03T04:33:57;99008.53;;;20.56;100.00
11349;BME280;5729;43.570;27.826;2022-08-03T04:36:31;99049.50;;;20.80;100.00
11349;BME280;5729;43.570;27.826;2022-08-03T04:41:24;99042.81;;;20.81;100.00
11349;BME280;5729;43.570;27.826;2022-08-03T04:43:53;99027.84;;;20.85;100.00
11349;BME280;5729;43.570;27.826;2022-08-03T04:46:22;99045.94;;;20.99;100.00
11349;BME280;5729;43.570;27.826;2022-08-03T04:48:48;99044.28;;;21.01;100.00
11349;BME280;5729;43.570;27.826;2022-08-03T04:51:14;99037.53;;;21.06;100.00
11349;BME280;5729;43.570;27.826;2022-08-03T04:53:42;99029.56;;;20.95;100.00
11349;BME280;5729;43.570;27.826;2022-08-03T04:56:07;99004.16;;;20.95;100.00
11349;BME280;5729;43.570;27.826;2022-08-03T04:58:33;99043.91;;;21.19;100.00
11349;BME280;5729;43.570;27.826;2022-08-03T05:00:59;98997.91;;;20.94;100.00
11349;BME280;5729;43.570;27.826;2022-08-03T05:03:24;99026.59;;;21.06;100.00
11349;BME280;5729;43.570;27.826;2022-08-03T05:05:51;99003.03;;;21.09;100.00
11349;BME280;5729;43.570;27.826;2022-08-03T05:08:16;99043.81;;;21.39;100.00
11349;BME280;5729;43.570;27.826;2022-08-03T05:10:42;99011.97;;;21.29;100.00
11349;BME280;5729;43.570;27.826;2022-08-03T05:13:07;99049.09;;;21.62;100.00
11349;BME280;5729;43.570;27.826;2022-08-03T05:15:37;99049.25;;;21.71;100.00
11349;BME280;5729;43.570;27.826;2022-08-03T05:18:02;99014.31;;;21.59;100.00
11349;BME280;5729;43.570;27.826;2022-08-03T05:20:28;99033.19;;;21.86;100.00
11349;BME280;5729;43.570;27.826;2022-08-03T05:22:53;99052.47;;;21.99;100.00
11349;BME280;5729;43.570;27.826;2022-08-03T05:25:19;98967.25;;;21.61;100.00
11349;BME280;5729;43.570;27.826;2022-08-03T05:27:44;99023.47;;;21.98;100.00
11349;BME280;5729;43.570;27.826;2022-08-03T05:30:10;99038.69;;;22.15;100.00
11349;BME280;5729;43.570;27.826;2022-08-03T05:32:35;99035.06;;;22.18;100.00
11349;BME280;5729;43.570;27.826;2022-08-03T05:35:01;99034.44;;;22.27;100.00
11349;BME280;5729;43.570;27.826;2022-08-03T05:37:26;99060.84;;;22.50;100.00
11349;BME280;5729;43.570;27.826;2022-08-03T05:39:52;99056.66;;;22.58;100.00
11349;BME280;5729;43.570;27.826;2022-08-03T05:42:17;99062.16;;;22.58;100.00
11349;BME280;5729;43.570;27.826;2022-08-03T05:44:43;99048.91;;;22.56;100.00
11349;BME280;5729;43.570;27.826;2022-08-03T05:47:08;99050.75;;;22.59;100.00
11349;BME280;5729;43.570;27.826;2022-08-03T05:49:34;99022.72;;;22.39;100.00
11349;BME280;5729;43.570;27.826;2022-08-03T05:51:59;99059.00;;;22.72;100.00
11349;BME280;5729;43.570;27.826;2022-08-03T05:54:24;99049.13;;;22.74;100.00
11349;BME280;5729;43.570;27.826;2022-08-03T05:56:54;98996.69;;;22.43;100.00
11349;BME280;5729;43.570;27.826;2022-08-03T05:59:20;99035.50;;;22.84;100.00
11349;BME280;5729;43.570;27.826;2022-08-03T06:01:46;99047.72;;;22.95;100.00
11349;BME280;5729;43.570;27.826;2022-08-03T06:04:11;99032.88;;;22.93;100.00
11349;BME280;5729;43.570;27.826;2022-08-03T06:06:38;99052.19;;;23.14;100.00
11349;BME280;5729;43.570;27.826;2022-08-03T06:09:04;99035.06;;;23.10;100.00
11349;BME280;5729;43.570;27.826;2022-08-03T06:11:29;99070.56;;;23.30;100.00
11349;BME280;5729;43.570;27.826;2022-08-03T06:13:55;99018.16;;;22.99;100.00
11349;BME280;5729;43.570;27.826;2022-08-03T06:16:20;99056.25;;;23.35;100.00
11349;BME280;5729;43.570;27.826;2022-08-03T06:18:46;99062.19;;;23.46;100.00
11349;BME280;5729;43.570;27.826;2022-08-03T06:21:11;99060.66;;;23.58;100.00
11349;BME280;5729;43.570;27.826;2022-08-03T06:23:36;99017.00;;;23.35;100.00
11349;BME280;5729;43.570;27.826;2022-08-03T06:26:02;99024.34;;;23.38;100.00
11349;BME280;5729;43.570;27.826;2022-08-03T06:28:28;99060.47;;;23.74;100.00
11349;BME280;5729;43.570;27.826;2022-08-03T06:30:53;99066.31;;;23.76;100.00
11349;BME280;5729;43.570;27.826;2022-08-03T06:33:19;99012.34;;;23.44;100.00
11349;BME280;5729;43.570;27.826;2022-08-03T06:35:44;99020.72;;;23.53;100.00
11349;BME280;5729;43.570;27.826;2022-08-03T06:38:09;99067.81;;;23.90;100.00
11349;BME280;5729;43.570;27.826;2022-08-03T06:40:36;99057.88;;;23.93;100.00
11349;BME280;5729;43.570;27.826;2022-08-03T06:43:05;99040.84;;;23.85;100.00
11349;BME280;5729;43.570;27.826;2022-08-03T06:45:31;99055.31;;;23.98;100.00
11349;BME280;5729;43.570;27.826;2022-08-03T06:48:05;99030.66;;;23.95;100.00
11349;BME280;5729;43.570;27.826;2022-08-03T06:50:31;99045.59;;;24.06;100.00
11349;BME280;5729;43.570;27.826;2022-08-03T06:52:57;99061.56;;;24.33;100.00
11349;BME280;5729;43.570;27.826;2022-08-03T06:55:22;99056.22;;;24.39;100.00
11349;BME280;5729;43.570;27.826;2022-08-03T06:57:48;99057.91;;;24.36;100.00
11349;BME280;5729;43.570;27.826;2022-08-03T07:00:14;99052.19;;;24.52;100.00
11349;BME280;5729;43.570;27.826;2022-08-03T07:02:40;99063.00;;;24.69;100.00
11349;BME280;5729;43.570;27.826;2022-08-03T07:05:06;99029.03;;;24.50;100.00
11349;BME280;5729;43.570;27.826;2022-08-03T07:07:32;99013.94;;;24.54;100.00
11349;BME280;5729;43.570;27.826;2022-08-03T07:09:58;99056.63;;;24.81;100.00
11349;BME280;5729;43.570;27.826;2022-08-03T07:12:26;99036.38;;;24.84;100.00
11349;BME280;5729;43.570;27.826;2022-08-03T07:14:53;99048.69;;;24.92;100.00
11349;BME280;5729;43.570;27.826;2022-08-03T07:17:18;99031.25;;;24.95;100.00
11349;BME280;5729;43.570;27.826;2022-08-03T07:19:44;99062.44;;;25.23;100.00
11349;BME280;5729;43.570;27.826;2022-08-03T07:22:09;99062.91;;;25.30;100.00
11349;BME280;5729;43.570;27.826;2022-08-03T07:24:35;99041.16;;;25.23;100.00
11349;BME280;5729;43.570;27.826;2022-08-03T07:27:01;99052.06;;;25.45;97.87
11349;BME280;5729;43.570;27.826;2022-08-03T07:29:26;99053.63;;;25.55;100.00
11349;BME280;5729;43.570;27.826;2022-08-03T07:31:52;99062.66;;;25.56;98.89
11349;BME280;5729;43.570;27.826;2022-08-03T07:34:17;99080.03;;;25.65;93.35
11349;BME280;5729;43.570;27.826;2022-08-03T07:36:43;99058.22;;;25.58;88.84
11349;BME280;5729;43.570;27.826;2022-08-03T07:39:08;99069.94;;;25.72;89.37
11349;BME280;5729;43.570;27.826;2022-08-03T07:41:34;99059.94;;;25.65;92.91
11349;BME280;5729;43.570;27.826;2022-08-03T07:43:59;99065.91;;;25.63;89.58
11349;BME280;5729;43.570;27.826;2022-08-03T07:46:25;99048.72;;;25.59;85.49
11349;BME280;5729;43.570;27.826;2022-08-03T07:48:50;99080.84;;;25.84;85.69
11349;BME280;5729;43.570;27.826;2022-08-03T07:51:17;99051.97;;;25.67;83.45
11349;BME280;5729;43.570;27.826;2022-08-03T07:53:42;99089.25;;;25.99;81.91
11349;BME280;5729;43.570;27.826;2022-08-03T07:56:07;99066.84;;;25.97;79.76
11349;BME280;5729;43.570;27.826;2022-08-03T07:58:34;99046.47;;;25.94;77.84
11349;BME280;5729;43.570;27.826;2022-08-03T08:01:00;99057.50;;;26.13;74.66
11349;BME280;5729;43.570;27.826;2022-08-03T08:03:26;99062.38;;;26.27;70.67
11349;BME280;5729;43.570;27.826;2022-08-03T08:05:51;99038.16;;;26.40;70.21
11349;BME280;5729;43.570;27.826;2022-08-03T08:08:18;99057.72;;;27.35;63.61
11349;BME280;5729;43.570;27.826;2022-08-03T08:10:44;99062.63;;;28.03;58.11
11349;BME280;5729;43.570;27.826;2022-08-03T08:13:10;99075.59;;;28.21;57.60
11349;BME280;5729;43.570;27.826;2022-08-03T08:15:35;99035.78;;;27.56;57.15
11349;BME280;5729;43.570;27.826;2022-08-03T08:18:01;99046.00;;;27.40;59.73
11349;BME280;5729;43.570;27.826;2022-08-03T08:20:36;99073.41;;;28.39;55.30
11349;BME280;5729;43.570;27.826;2022-08-03T08:23:06;99039.41;;;31.79;43.80
11349;BME280;5729;43.570;27.826;2022-08-03T08:25:33;99092.06;;;35.98;34.56
11349;BME280;5729;43.570;27.826;2022-08-03T08:27:59;99091.31;;;39.94;29.59
11349;BME280;5729;43.570;27.826;2022-08-03T08:30:29;99086.28;;;43.14;25.01
11349;BME280;5729;43.570;27.826;2022-08-03T08:32:55;99080.19;;;45.42;21.35
11349;BME280;5729;43.570;27.826;2022-08-03T08:35:22;99083.09;;;46.62;20.47
11349;BME280;5729;43.570;27.826;2022-08-03T08:37:47;99077.47;;;48.71;18.97
11349;BME280;5729;43.570;27.826;2022-08-03T08:40:13;99074.38;;;49.90;17.17
11349;BME280;5729;43.570;27.826;2022-08-03T08:42:40;99088.31;;;49.96;16.86
11349;BME280;5729;43.570;27.826;2022-08-03T08:45:07;99069.41;;;50.84;15.85
11349;BME280;5729;43.570;27.826;2022-08-03T08:47:36;99067.56;;;51.48;15.53
11349;BME280;5729;43.570;27.826;2022-08-03T08:50:02;99078.53;;;50.40;15.71
11349;BME280;5729;43.570;27.826;2022-08-03T08:52:29;99074.81;;;51.49;15.67
11349;BME280;5729;43.570;27.826;2022-08-03T08:55:00;99006.22;;;51.86;15.19
11349;BME280;5729;43.570;27.826;2022-08-03T08:57:43;99071.25;;;53.77;13.54
11349;BME280;5729;43.570;27.826;2022-08-03T09:00:10;99077.47;;;53.00;13.35
11349;BME280;5729;43.570;27.826;2022-08-03T09:02:40;99084.06;;;53.72;13.57
11349;BME280;5729;43.570;27.826;2022-08-03T09:05:16;99083.06;;;53.47;13.05
11349;BME280;5729;43.570;27.826;2022-08-03T09:07:43;99060.69;;;53.28;13.35
11349;BME280;5729;43.570;27.826;2022-08-03T09:10:11;99069.88;;;53.78;13.47
11349;BME280;5729;43.570;27.826;2022-08-03T09:12:41;99073.84;;;54.83;12.19
11349;BME280;5729;43.570;27.826;2022-08-03T09:15:24;99073.34;;;54.49;12.28
11349;BME280;5729;43.570;27.826;2022-08-03T09:17:53;99057.56;;;52.88;13.12
11349;BME280;5729;43.570;27.826;2022-08-03T09:20:20;99060.22;;;53.18;13.26
11349;BME280;5729;43.570;27.826;2022-08-03T09:23:00;99057.56;;;54.32;12.33
11349;BME280;5729;43.570;27.826;2022-08-03T09:25:46;99039.53;;;53.39;12.60
11349;BME280;5729;43.570;27.826;2022-08-03T09:28:17;99052.03;;;53.28;12.69
11349;BME280;5729;43.570;27.826;2022-08-03T09:30:45;99051.44;;;52.80;12.94
11349;BME280;5729;43.570;27.826;2022-08-03T09:33:22;99040.88;;;52.69;13.53
11349;BME280;5729;43.570;27.826;2022-08-03T09:35:48;99030.91;;;52.88;14.03
11349;BME280;5729;43.570;27.826;2022-08-03T09:38:17;99067.84;;;52.60;13.91
11349;BME280;5729;43.570;27.826;2022-08-03T09:40:44;99028.84;;;51.78;13.88
11349;BME280;5729;43.570;27.826;2022-08-03T09:43:10;99045.47;;;52.58;13.84
11349;BME280;5729;43.570;27.826;2022-08-03T09:45:37;99047.00;;;53.28;14.19
11349;BME280;5729;43.570;27.826;2022-08-03T09:48:23;99011.34;;;53.02;13.09
11349;BME280;5729;43.570;27.826;2022-08-03T09:50:51;99054.78;;;53.08;13.36
11349;BME280;5729;43.570;27.826;2022-08-03T09:53:17;99017.44;;;52.92;13.37
11349;BME280;5729;43.570;27.826;2022-08-03T09:56:00;99042.28;;;52.52;13.33
11349;BME280;5729;43.570;27.826;2022-08-03T09:58:30;99040.06;;;51.43;13.94
11349;BME280;5729;43.570;27.826;2022-08-03T10:00:59;99049.09;;;50.26;14.15
11349;BME280;5729;43.570;27.826;2022-08-03T10:03:27;99062.22;;;49.27;15.06
11349;BME280;5729;43.570;27.826;2022-08-03T10:05:53;99043.09;;;49.18;15.24
11349;BME280;5729;43.570;27.826;2022-08-03T10:08:19;99054.44;;;49.92;14.94
11349;BME280;5729;43.570;27.826;2022-08-03T10:10:46;99019.34;;;49.80;15.09
11349;BME280;5729;43.570;27.826;2022-08-03T10:13:14;99037.84;;;50.71;14.47
11349;BME280;5729;43.570;27.826;2022-08-03T10:15:40;99032.69;;;50.01;15.32
11349;BME280;5729;43.570;27.826;2022-08-03T10:18:06;99037.84;;;50.71;14.41
11349;BME280;5729;43.570;27.826;2022-08-03T10:20:36;99031.50;;;50.45;15.20
11349;BME280;5729;43.570;27.826;2022-08-03T10:23:02;99025.53;;;50.41;15.18
11349;BME280;5729;43.570;27.826;2022-08-03T10:25:29;99019.31;;;51.44;14.47
11349;BME280;5729;43.570;27.826;2022-08-03T10:27:56;99025.22;;;51.78;14.11
11349;BME280;5729;43.570;27.826;2022-08-03T10:30:23;98998.25;;;50.40;14.24
11349;BME280;5729;43.570;27.826;2022-08-03T10:33:01;99021.94;;;50.54;14.74
11349;BME280;5729;43.570;27.826;2022-08-03T10:35:29;99029.03;;;50.53;14.34
11349;BME280;5729;43.570;27.826;2022-08-03T10:38:00;99017.06;;;49.90;15.31
11349;BME280;5729;43.570;27.826;2022-08-03T10:40:30;99016.59;;;50.35;14.71
11349;BME280;5729;43.570;27.826;2022-08-03T10:43:09;98994.72;;;49.61;15.35
11349;BME280;5729;43.570;27.826;2022-08-03T10:45:40;99022.81;;;49.90;14.71
11349;BME280;5729;43.570;27.826;2022-08-03T10:48:08;98979.81;;;48.77;14.96
11349;BME280;5729;43.570;27.826;2022-08-03T10:50:34;99004.47;;;48.70;14.93
11349;BME280;5729;43.570;27.826;2022-08-03T10:53:03;99005.97;;;48.71;15.51
11349;BME280;5729;43.570;27.826;2022-08-03T10:55:45;99004.78;;;48.51;15.41
11349;BME280;5729;43.570;27.826;2022-08-03T11:01:08;98948.81;;;47.33;15.89
11349;BME280;5729;43.570;27.826;2022-08-03T11:06:20;98991.22;;;45.42;16.72
11349;BME280;5729;43.570;27.826;2022-08-03T11:08:47;98996.03;;;45.30;16.88
11349;BME280;5729;43.570;27.826;2022-08-03T11:16:43;98992.13;;;45.54;17.95
11349;BME280;5729;43.570;27.826;2022-08-03T11:19:15;98982.53;;;45.40;17.51
11349;BME280;5729;43.570;27.826;2022-08-03T11:32:53;98975.34;;;45.10;17.27
11349;BME280;5729;43.570;27.826;2022-08-03T11:35:58;98971.00;;;45.09;17.52
11349;BME280;5729;43.570;27.826;2022-08-03T11:38:24;98962.81;;;44.38;17.61
11349;BME280;5729;43.570;27.826;2022-08-03T11:40:52;98973.59;;;44.39;17.78
11349;BME280;5729;43.570;27.826;2022-08-03T11:46:05;98963.78;;;43.87;17.98
11349;BME280;5729;43.570;27.826;2022-08-03T11:48:48;98931.44;;;43.45;18.09
11349;BME280;5729;43.570;27.826;2022-08-03T11:53:45;98919.88;;;43.34;17.97
11349;BME280;5729;43.570;27.826;2022-08-03T11:56:12;98953.06;;;43.41;18.91
11349;BME280;5729;43.570;27.826;2022-08-03T11:58:45;98914.31;;;42.92;17.78
11349;BME280;5729;43.570;27.826;2022-08-03T12:01:13;98959.53;;;42.48;18.22
11349;BME280;5729;43.570;27.826;2022-08-03T12:03:41;98965.09;;;42.13;18.50
11349;BME280;5729;43.570;27.826;2022-08-03T12:06:11;98935.06;;;41.85;18.80
11349;BME280;5729;43.570;27.826;2022-08-03T12:08:38;98932.91;;;41.68;20.24
11349;BME280;5729;43.570;27.826;2022-08-03T12:11:06;98941.69;;;42.13;18.76
11349;BME280;5729;43.570;27.826;2022-08-03T12:13:44;98955.09;;;42.12;19.05
11349;BME280;5729;43.570;27.826;2022-08-03T12:16:16;98947.28;;;41.95;19.78
11349;BME280;5729;43.570;27.826;2022-08-03T12:18:42;98918.66;;;41.51;18.52
11349;BME280;5729;43.570;27.826;2022-08-03T12:21:09;98926.44;;;40.95;19.06
11349;BME280;5729;43.570;27.826;2022-08-03T12:23:36;98948.16;;;41.33;19.84
11349;BME280;5729;43.570;27.826;2022-08-03T12:26:04;98936.03;;;41.48;18.70
11349;BME280;5729;43.570;27.826;2022-08-03T12:28:29;98931.41;;;41.27;19.29
11349;BME280;5729;43.570;27.826;2022-08-03T12:31:03;98941.44;;;41.21;19.28
11349;BME280;5729;43.570;27.826;2022-08-03T12:33:31;98940.09;;;41.29;18.07
11349;BME280;5729;43.570;27.826;2022-08-03T12:36:06;98947.88;;;41.14;18.17
11349;BME280;5729;43.570;27.826;2022-08-03T12:38:34;98940.16;;;41.07;18.59
11349;BME280;5729;43.570;27.826;2022-08-03T12:41:04;98902.16;;;41.32;19.19
11349;BME280;5729;43.570;27.826;2022-08-03T12:43:31;98928.56;;;42.00;19.47
11349;BME280;5729;43.570;27.826;2022-08-03T12:46:11;98939.16;;;43.01;17.48
11349;BME280;5729;43.570;27.826;2022-08-03T12:49:06;98936.66;;;43.49;17.72
11349;BME280;5729;43.570;27.826;2022-08-03T12:51:40;98910.97;;;43.03;18.87
11349;BME280;5729;43.570;27.826;2022-08-03T12:54:25;98923.81;;;42.27;17.52
11349;BME280;5729;43.570;27.826;2022-08-03T12:57:05;98926.34;;;41.98;17.78
11349;BME280;5729;43.570;27.826;2022-08-03T13:01:58;98913.59;;;41.02;18.84
11349;BME280;5729;43.570;27.826;2022-08-03T13:04:34;98935.06;;;40.97;19.83
11349;BME280;5729;43.570;27.826;2022-08-03T13:07:06;98927.38;;;40.90;19.60
11349;BME280;5729;43.570;27.826;2022-08-03T13:09:49;98934.56;;;40.69;19.20
11349;BME280;5729;43.570;27.826;2022-08-03T13:12:16;98914.47;;;40.49;19.75
11349;BME280;5729;43.570;27.826;2022-08-03T13:14:44;98927.47;;;40.37;21.01
11349;BME280;5729;43.570;27.826;2022-08-03T13:17:10;98925.19;;;40.05;20.47
11349;BME280;5729;43.570;27.826;2022-08-03T13:19:37;98912.44;;;39.38;21.04
11349;BME280;5729;43.570;27.826;2022-08-03T13:24:43;98927.97;;;39.24;22.31
11349;BME280;5729;43.570;27.826;2022-08-03T13:27:10;98923.84;;;39.25;22.23
11349;BME280;5729;43.570;27.826;2022-08-03T13:29:35;98927.31;;;39.46;20.70
11349;BME280;5729;43.570;27.826;2022-08-03T13:32:02;98920.19;;;39.09;21.29
11349;BME280;5729;43.570;27.826;2022-08-03T13:34:27;98913.78;;;39.44;20.99
11349;BME280;5729;43.570;27.826;2022-08-03T13:36:53;98922.88;;;39.81;21.18
11349;BME280;5729;43.570;27.826;2022-08-03T13:39:19;98909.94;;;40.08;20.09
11349;BME280;5729;43.570;27.826;2022-08-03T13:41:45;98905.91;;;40.87;19.04
11349;BME280;5729;43.570;27.826;2022-08-03T13:44:11;98924.66;;;41.23;20.50
11349;BME280;5729;43.570;27.826;2022-08-03T13:46:37;98928.97;;;41.24;19.26
11349;BME280;5729;43.570;27.826;2022-08-03T13:49:03;98925.53;;;40.78;20.03